Time;durP1;ratioP1;P1;durP2;ratioP2;P2;SDS_P1;SDS_P2;PMS_P1;PMS_P2;Temp;Humidity;BMP_temperature;BMP_pressure;BME280_temperature;BME280_humidity;BME280_pressure;Samples;Min_cycle;Max_cycle;Signal;HPM_P1;HPM_P2
2021/04/06 00:01:47;;;;;;;4.78;1.48;;;-1.00;70.00;;;;;;5199864;28;20057;-66
2021/04/06 00:04:22;;;;;;;2.10;0.70;;;-1.10;69.50;;;;;;5185907;28;20412;-67
2021/04/06 00:07:02;;;;;;;4.85;1.00;;;-1.10;70.10;;;;;;5189663;28;20135;-65
2021/04/06 00:09:35;;;;;;;;;;;-1.10;70.00;;;;;;5188767;28;20156;-67
2021/04/06 00:12:08;;;;;;;2.03;0.90;;;-1.10;69.60;;;;;;5186373;28;20402;-65
2021/04/06 00:14:41;;;;;;;3.65;1.00;;;-1.00;70.00;;;;;;5187990;28;20507;-64
2021/04/06 00:17:15;;;;;;;4.88;1.10;;;-1.00;69.40;;;;;;5187416;28;20160;-65
2021/04/06 00:19:47;;;;;;;4.10;0.93;;;-1.00;70.00;;;;;;5185304;28;20057;-66
2021/04/06 00:22:21;;;;;;;6.10;1.08;;;-1.00;69.60;;;;;;5184174;28;20049;-67
2021/04/06 00:24:53;;;;;;;4.93;1.10;;;-1.10;68.90;;;;;;5188185;28;20163;-65
2021/04/06 00:27:34;;;;;;;2.80;1.05;;;-1.20;69.10;;;;;;5187625;28;20103;-65
2021/04/06 00:30:08;;;;;;;2.28;0.80;;;-1.20;69.20;;;;;;5193116;28;20076;-65
2021/04/06 00:32:42;;;;;;;2.35;0.80;;;-1.30;69.90;;;;;;5188187;28;20042;-65
2021/04/06 00:35:14;;;;;;;1.92;0.60;;;-1.30;69.50;;;;;;5201264;28;20571;-65
2021/04/06 00:37:47;;;;;;;3.75;0.80;;;-1.40;69.10;;;;;;5188750;28;20045;-65
2021/04/06 00:40:20;;;;;;;3.80;0.73;;;-1.30;69.10;;;;;;5184882;28;20711;-67
2021/04/06 00:43:00;;;;;;;2.78;0.80;;;-1.30;68.30;;;;;;5186155;28;20073;-65
2021/04/06 00:45:42;;;;;;;2.30;0.68;;;-1.30;68.40;;;;;;5182729;28;20050;-66
2021/04/06 00:48:18;;;;;;;4.38;0.77;;;-1.30;68.20;;;;;;5185019;28;20503;-65
2021/04/06 00:51:10;;;;;;;6.78;0.88;;;-1.30;68.30;;;;;;5185897;28;20481;-64
2021/04/06 00:53:53;;;;;;;3.33;0.80;;;-1.20;67.70;;;;;;5190614;28;20038;-64
2021/04/06 00:56:29;;;;;;;3.47;0.75;;;-1.30;68.10;;;;;;5189969;28;20084;-64
2021/04/06 00:59:03;;;;;;;2.53;0.65;;;-1.40;68.60;;;;;;5188514;28;20503;-65
2021/04/06 01:01:43;;;;;;;3.70;0.68;;;-1.40;68.50;;;;;;5186813;28;20049;-66
2021/04/06 01:04:22;;;;;;;3.72;1.00;;;-1.30;69.20;;;;;;5185301;28;20123;-65
2021/04/06 01:06:55;;;;;;;3.60;0.93;;;-1.30;68.00;;;;;;5182930;28;20119;-65
2021/04/06 01:09:43;;;;;;;2.47;0.70;;;-1.30;68.10;;;;;;5189472;28;20491;-65
2021/04/06 01:12:18;;;;;;;3.10;0.80;;;-1.30;67.60;;;;;;5184439;28;20155;-65
2021/04/06 01:14:52;;;;;;;1.70;0.65;;;-1.30;67.50;;;;;;5190828;28;20053;-66
2021/04/06 01:17:26;;;;;;;4.45;0.80;;;-1.20;67.20;;;;;;5186806;28;20569;-65
2021/04/06 01:20:11;;;;;;;5.45;1.13;;;-1.30;67.00;;;;;;5187132;28;20112;-65
2021/04/06 01:22:44;;;;;;;2.70;0.77;;;-1.30;67.40;;;;;;5187655;28;20172;-66
2021/04/06 01:25:22;;;;;;;2.17;0.70;;;-1.40;67.40;;;;;;5201877;28;20045;-66
2021/04/06 01:28:07;;;;;;;3.55;0.90;;;-1.50;67.60;;;;;;5188417;28;20053;-65
2021/04/06 01:30:46;;;;;;;2.75;0.90;;;-1.50;67.50;;;;;;5183280;28;20470;-68
2021/04/06 01:33:19;;;;;;;3.67;0.82;;;-1.60;67.80;;;;;;5185759;28;20071;-67
2021/04/06 01:35:57;;;;;;;2.42;0.80;;;-1.60;67.90;;;;;;5186768;28;20420;-65
2021/04/06 01:38:29;;;;;;;2.22;0.80;;;-1.70;69.10;;;;;;5187988;28;20120;-65
2021/04/06 01:41:02;;;;;;;2.95;0.75;;;-1.70;68.60;;;;;;5185371;28;20046;-67
2021/04/06 01:43:38;;;;;;;3.80;0.80;;;-1.60;70.00;;;;;;5186348;28;20460;-68
2021/04/06 01:46:18;;;;;;;2.15;0.80;;;-1.50;71.10;;;;;;5184986;28;20128;-66
2021/04/06 01:48:50;;;;;;;4.78;1.00;;;-1.40;69.70;;;;;;5186196;28;20111;-68
2021/04/06 01:51:22;;;;;;;4.78;1.00;;;-1.40;69.50;;;;;;5186398;28;20632;-65
2021/04/06 01:53:53;;;;;;;5.65;1.20;;;-1.40;69.80;;;;;;5184091;28;20096;-69
2021/04/06 01:56:28;;;;;;;4.20;0.90;;;-1.40;69.80;;;;;;5184596;28;20530;-65
2021/04/06 01:59:02;;;;;;;5.53;0.77;;;-1.40;68.90;;;;;;5187583;28;20122;-65
2021/04/06 02:01:34;;;;;;;1.92;0.60;;;-1.40;69.00;;;;;;5179873;28;20046;-68
2021/04/06 02:04:07;;;;;;;3.42;0.75;;;-1.50;68.80;;;;;;5185986;28;20107;-65
2021/04/06 02:06:39;;;;;;;3.03;0.60;;;-1.60;68.60;;;;;;5185108;28;20075;-65
2021/04/06 02:09:11;;;;;;;3.67;0.82;;;-1.80;68.80;;;;;;5184221;28;20057;-65
2021/04/06 02:11:45;;;;;;;3.53;0.93;;;-1.80;68.70;;;;;;5184947;28;20072;-65
2021/04/06 02:14:21;;;;;;;2.53;0.80;;;-1.90;68.70;;;;;;5184917;28;20073;-66
2021/04/06 02:16:57;;;;;;;2.63;0.65;;;-1.90;69.10;;;;;;5185270;28;20144;-65
2021/04/06 02:19:39;;;;;;;1.67;0.77;;;-2.00;69.00;;;;;;5186767;28;20129;-65
2021/04/06 02:22:13;;;;;;;3.13;0.80;;;-1.90;68.90;;;;;;5185251;28;20053;-65
2021/04/06 02:24:49;;;;;;;1.92;0.70;;;-1.90;69.60;;;;;;5188595;28;20060;-65
2021/04/06 02:27:34;;;;;;;2.15;0.75;;;-1.80;69.50;;;;;;5180747;28;20530;-66
2021/04/06 02:30:09;;;;;;;1.73;0.70;;;-1.70;69.50;;;;;;5184748;28;20120;-65
2021/04/06 02:32:41;;;;;;;1.85;0.70;;;-1.70;69.80;;;;;;5180855;28;20072;-66
2021/04/06 02:35:13;;;;;;;3.80;1.08;;;-1.70;70.40;;;;;;5185546;28;20507;-67
2021/04/06 02:37:45;;;;;;;4.03;1.10;;;-1.80;71.40;;;;;;5191040;28;20720;-65
2021/04/06 02:40:20;;;;;;;1.65;0.60;;;-1.80;71.40;;;;;;5187879;28;20498;-67
2021/04/06 02:42:57;;;;;;;3.25;1.00;;;-1.80;70.50;;;;;;5187214;28;20045;-64
2021/04/06 02:45:30;;;;;;;1.48;0.70;;;-1.90;70.70;;;;;;5190976;28;20096;-65
2021/04/06 02:48:08;;;;;;;4.30;1.23;;;-2.00;71.20;;;;;;5194761;28;20529;-65
2021/04/06 02:50:41;;;;;;;3.58;1.00;;;-1.90;71.50;;;;;;5189386;28;20061;-65
2021/04/06 02:53:17;;;;;;;2.33;0.80;;;-1.90;71.70;;;;;;5188779;28;20095;-65
2021/04/06 02:55:51;;;;;;;3.47;0.82;;;-1.80;71.40;;;;;;5191991;28;20108;-66
2021/04/06 02:58:23;;;;;;;2.17;0.68;;;-1.80;70.80;;;;;;5192324;28;20112;-65
2021/04/06 03:01:13;;;;;;;2.90;0.90;;;-1.90;71.30;;;;;;5189231;28;21445;-65
2021/04/06 03:03:44;;;;;;;2.53;0.88;;;-2.00;71.90;;;;;;5189520;28;20561;-65
2021/04/06 03:06:16;;;;;;;3.08;0.95;;;-2.00;71.90;;;;;;5190183;28;20038;-66
2021/04/06 03:08:47;;;;;;;2.55;0.85;;;-2.10;71.80;;;;;;5191750;28;20068;-66
2021/04/06 03:11:18;;;;;;;3.42;0.80;;;-2.10;72.00;;;;;;5188506;28;20574;-68
2021/04/06 03:13:50;;;;;;;2.75;0.90;;;-2.20;72.30;;;;;;5175266;28;20148;-65
2021/04/06 03:16:23;;;;;;;2.30;0.80;;;-2.10;71.80;;;;;;5190636;28;20057;-66
2021/04/06 03:19:02;;;;;;;2.95;0.88;;;-2.10;71.70;;;;;;5192594;28;20073;-65
2021/04/06 03:21:35;;;;;;;4.17;1.30;;;-2.10;72.90;;;;;;5189280;28;20049;-67
2021/04/06 03:24:08;;;;;;;2.65;0.80;;;-2.20;71.50;;;;;;5191193;28;20412;-65
2021/04/06 03:26:39;;;;;;;3.97;0.80;;;-2.20;71.40;;;;;;5189901;28;20054;-68
2021/04/06 03:29:11;;;;;;;4.63;1.15;;;-2.30;71.90;;;;;;5188348;28;20127;-66
2021/04/06 03:31:43;;;;;;;3.33;0.80;;;-2.30;72.10;;;;;;5191999;28;20053;-65
2021/04/06 03:34:15;;;;;;;2.45;0.82;;;-2.20;72.30;;;;;;5189680;28;20054;-65
2021/04/06 03:36:47;;;;;;;3.08;0.85;;;-2.20;72.40;;;;;;5183675;28;20042;-67
2021/04/06 03:39:19;;;;;;;3.40;0.90;;;-2.20;71.50;;;;;;5190083;28;20068;-67
2021/04/06 03:41:51;;;;;;;4.20;0.70;;;-2.10;71.10;;;;;;5190713;28;20065;-65
2021/04/06 03:44:28;;;;;;;3.85;0.80;;;-2.10;70.50;;;;;;5189741;28;20042;-65
2021/04/06 03:47:04;;;;;;;5.68;0.85;;;-2.20;70.80;;;;;;5188596;28;20422;-65
2021/04/06 03:49:47;;;;;;;4.88;1.00;;;-2.20;71.70;;;;;;5191079;28;20050;-65
2021/04/06 03:52:18;;;;;;;3.05;0.80;;;-2.20;72.80;;;;;;5191768;28;20515;-67
2021/04/06 03:54:50;;;;;;;3.13;0.93;;;-2.20;72.00;;;;;;5184985;28;20052;-67
2021/04/06 03:57:28;;;;;;;2.13;0.90;;;-2.20;71.80;;;;;;5188566;28;20852;-65
2021/04/06 04:00:00;;;;;;;2.78;0.80;;;-2.20;71.20;;;;;;5186608;28;20060;-64
2021/04/06 04:02:31;;;;;;;2.60;0.70;;;-2.30;71.50;;;;;;5184478;28;20077;-67
2021/04/06 04:05:04;;;;;;;2.42;0.80;;;-2.30;71.70;;;;;;5188110;28;20045;-67
2021/04/06 04:07:37;;;;;;;4.00;0.90;;;-2.40;71.00;;;;;;5188696;28;20046;-65
2021/04/06 04:10:09;;;;;;;3.80;0.77;;;-2.40;71.00;;;;;;5191983;28;20044;-66
2021/04/06 04:12:40;;;;;;;2.53;0.60;;;-2.60;70.90;;;;;;5183875;28;20034;-65
2021/04/06 04:15:12;;;;;;;6.43;1.00;;;-2.50;71.20;;;;;;5193610;28;20065;-65
2021/04/06 04:17:50;;;;;;;3.88;1.30;;;-2.40;71.00;;;;;;5189980;28;20042;-67
2021/04/06 04:20:23;;;;;;;2.10;0.70;;;-2.40;70.40;;;;;;5187702;28;20056;-65
2021/04/06 04:22:54;;;;;;;2.30;0.90;;;-2.30;69.30;;;;;;5188289;28;20037;-65
2021/04/06 04:25:26;;;;;;;3.63;0.70;;;-2.30;68.70;;;;;;5185093;28;20046;-65
2021/04/06 04:27:57;;;;;;;2.40;0.68;;;-2.30;68.90;;;;;;5189579;28;20052;-65
2021/04/06 04:30:37;;;;;;;3.42;0.85;;;-2.30;69.60;;;;;;5188884;28;20056;-65
2021/04/06 04:33:10;;;;;;;5.13;0.90;;;-2.20;68.00;;;;;;5188763;28;20056;-64
2021/04/06 04:35:42;;;;;;;3.70;1.02;;;-2.30;67.00;;;;;;5166953;28;20435;-65
2021/04/06 04:38:14;;;;;;;2.72;0.80;;;-2.40;67.20;;;;;;5167606;28;20074;-65
2021/04/06 04:40:45;;;;;;;3.97;0.70;;;-2.50;68.00;;;;;;5171454;28;20129;-65
2021/04/06 04:43:17;;;;;;;3.78;0.90;;;-2.70;68.70;;;;;;5187633;28;20049;-67
2021/04/06 04:45:48;;;;;;;2.75;0.75;;;-2.70;68.90;;;;;;5187966;28;20055;-66
2021/04/06 04:48:20;;;;;;;3.05;0.65;;;-2.80;70.10;;;;;;5187056;28;20618;-65
2021/04/06 04:50:51;;;;;;;3.97;0.80;;;-2.80;69.60;;;;;;5185802;28;20096;-66
2021/04/06 04:53:23;;;;;;;4.38;0.70;;;-2.90;68.90;;;;;;5190618;28;20037;-66
2021/04/06 04:55:54;;;;;;;1.17;0.57;;;-2.90;68.60;;;;;;5186084;28;20722;-66
2021/04/06 04:58:44;;;;;;;8.35;2.60;;;-2.80;68.50;;;;;;5189060;28;20077;-65
2021/04/06 05:01:16;;;;;;;;;;;-2.90;67.90;;;;;;5186002;28;20096;-67
2021/04/06 05:03:47;;;;;;;5.53;1.88;;;-3.00;67.90;;;;;;5193365;28;19952;-65
2021/04/06 05:06:19;;;;;;;5.63;1.35;;;-3.10;70.20;;;;;;5191644;28;20284;-66
2021/04/06 05:08:50;;;;;;;11.27;4.03;;;-3.10;70.80;;;;;;5189013;28;20072;-65
2021/04/06 05:11:22;;;;;;;7.05;2.10;;;-3.00;70.00;;;;;;5188977;28;20044;-64
2021/04/06 05:13:53;;;;;;;6.10;2.00;;;-3.00;70.00;;;;;;5188030;28;20664;-64
2021/04/06 05:16:24;;;;;;;4.50;1.17;;;-3.10;70.30;;;;;;5186889;28;20088;-64
2021/04/06 05:18:56;;;;;;;8.32;2.83;;;-2.90;70.50;;;;;;5187602;28;20062;-63
2021/04/06 05:21:27;;;;;;;6.63;2.35;;;-3.00;69.90;;;;;;5189765;28;20073;-64
2021/04/06 05:23:59;;;;;;;3.47;1.00;;;-2.90;70.20;;;;;;5191902;28;20073;-65
2021/04/06 05:26:30;;;;;;;3.45;0.90;;;-2.70;69.20;;;;;;5187852;28;20041;-63
2021/04/06 05:29:01;;;;;;;8.38;3.10;;;-2.70;69.20;;;;;;5190513;28;20438;-67
2021/04/06 05:31:33;;;;;;;15.00;5.57;;;-2.60;68.90;;;;;;5188681;28;20049;-66
2021/04/06 05:34:04;;;;;;;11.98;4.40;;;-2.80;67.60;;;;;;5188519;28;20685;-66
2021/04/06 05:36:36;;;;;;;7.45;3.20;;;-2.80;68.90;;;;;;5187302;28;20118;-65
2021/04/06 05:39:07;;;;;;;6.30;2.00;;;-2.80;69.30;;;;;;5190497;28;20041;-64
2021/04/06 05:41:47;;;;;;;6.20;1.60;;;-3.00;71.20;;;;;;5187508;28;20045;-64
2021/04/06 05:44:18;;;;;;;4.53;1.40;;;-3.00;69.80;;;;;;5186634;28;20129;-65
2021/04/06 05:46:53;;;;;;;2.58;1.10;;;-3.10;70.10;;;;;;5186701;28;20037;-63
2021/04/06 05:49:27;;;;;;;5.28;1.58;;;-3.10;70.80;;;;;;5186444;28;20732;-64
2021/04/06 05:51:58;;;;;;;3.58;1.05;;;-3.20;71.60;;;;;;5187419;28;20041;-64
2021/04/06 05:54:30;;;;;;;7.57;1.45;;;-3.30;72.60;;;;;;5187350;28;20507;-64
2021/04/06 05:57:02;;;;;;;3.33;1.00;;;-3.40;71.90;;;;;;5189232;28;20076;-67
2021/04/06 05:59:34;;;;;;;4.93;1.30;;;-3.40;69.90;;;;;;5189512;28;20053;-65
2021/04/06 06:02:09;;;;;;;4.63;1.10;;;-3.30;71.30;;;;;;5185938;28;20069;-64
2021/04/06 06:04:41;;;;;;;3.95;1.02;;;-3.20;70.60;;;;;;5192503;28;20115;-64
2021/04/06 06:07:12;;;;;;;4.10;1.45;;;-3.00;69.80;;;;;;5184524;28;20111;-64
2021/04/06 06:09:44;;;;;;;4.80;1.30;;;-2.90;69.90;;;;;;5189208;28;20046;-64
2021/04/06 06:12:19;;;;;;;4.00;1.00;;;-2.80;69.20;;;;;;5194575;28;20053;-65
2021/04/06 06:14:51;;;;;;;8.02;1.40;;;-2.70;68.60;;;;;;5195193;28;20530;-64
2021/04/06 06:17:27;;;;;;;4.80;1.10;;;-2.60;68.90;;;;;;5189661;28;20144;-64
2021/04/06 06:19:59;;;;;;;4.47;1.38;;;-2.70;66.30;;;;;;5191363;28;20045;-64
2021/04/06 06:22:32;;;;;;;4.32;1.10;;;-2.60;66.70;;;;;;5197791;28;20050;-65
2021/04/06 06:25:08;;;;;;;4.88;1.23;;;-2.50;66.20;;;;;;5191403;28;20105;-66
2021/04/06 06:27:43;;;;;;;2.70;1.13;;;-2.30;67.30;;;;;;5191588;28;20048;-64
2021/04/06 06:30:38;;;;;;;3.60;1.23;;;-1.70;65.90;;;;;;5190625;28;20049;-64
2021/04/06 06:33:20;;;;;;;5.93;1.08;;;-1.50;66.00;;;;;;5193451;28;20250;-65
2021/04/06 06:36:05;;;;;;;3.75;1.20;;;-1.50;65.40;;;;;;5194123;28;20042;-65
2021/04/06 06:38:42;;;;;;;2.47;0.73;;;-1.70;65.80;;;;;;5197924;28;20041;-65
2021/04/06 06:41:13;;;;;;;3.92;1.10;;;-1.80;65.80;;;;;;5198545;28;20402;-66
2021/04/06 06:43:51;;;;;;;2.50;1.00;;;-1.90;65.50;;;;;;5194846;28;20096;-66
2021/04/06 06:46:25;;;;;;;4.38;1.08;;;-1.60;65.40;;;;;;5193014;28;20051;-66
2021/04/06 06:48:59;;;;;;;3.75;0.80;;;-1.20;65.30;;;;;;5189540;28;20041;-66
2021/04/06 06:51:36;;;;;;;2.33;0.77;;;-0.80;64.90;;;;;;5193702;28;20054;-66
2021/04/06 06:54:08;;;;;;;2.65;0.90;;;-0.30;65.50;;;;;;5190223;28;20076;-66
2021/04/06 06:56:41;;;;;;;3.88;1.40;;;0.00;62.80;;;;;;5194895;28;20045;-67
2021/04/06 06:59:13;;;;;;;3.03;1.00;;;0.20;61.50;;;;;;5200903;28;20060;-66
2021/04/06 07:01:44;;;;;;;5.07;1.30;;;0.60;61.20;;;;;;5192545;28;20498;-67
2021/04/06 07:04:15;;;;;;;3.80;1.20;;;1.00;60.10;;;;;;5195488;28;20130;-66
2021/04/06 07:06:47;;;;;;;3.97;1.50;;;1.20;59.00;;;;;;5193579;28;20116;-69
2021/04/06 07:09:31;;;;;;;5.57;1.45;;;1.30;60.90;;;;;;5194575;28;20111;-68
2021/04/06 07:12:04;;;;;;;5.00;1.77;;;1.10;60.10;;;;;;5192775;28;20048;-68
2021/04/06 07:14:39;;;;;;;4.32;1.40;;;1.50;60.60;;;;;;5192491;28;20041;-65
2021/04/06 07:17:11;;;;;;;4.03;1.50;;;2.10;58.40;;;;;;5199356;28;20057;-66
2021/04/06 07:19:44;;;;;;;4.10;1.13;;;2.50;55.90;;;;;;5191416;28;20115;-66
2021/04/06 07:22:20;;;;;;;4.50;1.35;;;2.70;57.40;;;;;;5188070;28;20143;-67
2021/04/06 07:24:51;;;;;;;3.35;1.23;;;3.20;57.50;;;;;;5188911;28;20053;-66
2021/04/06 07:27:25;;;;;;;3.92;1.65;;;3.70;53.60;;;;;;5190596;28;20149;-66
2021/04/06 07:29:57;;;;;;;3.58;1.10;;;3.70;51.00;;;;;;5189371;28;20438;-68
2021/04/06 07:32:30;;;;;;;3.55;1.42;;;3.70;53.00;;;;;;5190596;28;20042;-64
2021/04/06 07:35:01;;;;;;;3.25;1.30;;;3.90;52.90;;;;;;5189543;28;20097;-67
2021/04/06 07:37:40;;;;;;;4.65;1.65;;;3.90;50.50;;;;;;5186100;28;20061;-68
2021/04/06 07:40:15;;;;;;;6.35;2.90;;;3.50;53.60;;;;;;5193789;28;20049;-64
2021/04/06 07:42:47;;;;;;;3.47;1.10;;;3.50;51.80;;;;;;5189903;28;20466;-67
2021/04/06 07:45:21;;;;;;;2.72;1.10;;;3.60;52.20;;;;;;5189320;28;20108;-67
2021/04/06 07:47:53;;;;;;;5.85;1.50;;;3.50;51.00;;;;;;5188801;28;20549;-64
2021/04/06 07:50:41;;;;;;;8.13;2.53;;;3.80;51.30;;;;;;5187796;28;20736;-64
2021/04/06 07:53:19;;;;;;;10.95;4.38;;;3.90;50.10;;;;;;5192579;28;20045;-67
2021/04/06 07:55:50;;;;;;;3.67;1.35;;;4.30;48.50;;;;;;5186320;28;20521;-65
2021/04/06 07:58:48;;;;;;;4.20;1.67;;;4.50;48.40;;;;;;5186776;28;20075;-65
2021/04/06 08:01:27;;;;;;;4.70;1.38;;;4.40;51.00;;;;;;5188157;28;20455;-66
2021/04/06 08:04:06;;;;;;;3.15;1.30;;;4.30;43.70;;;;;;5190058;28;20046;-64
2021/04/06 08:06:45;;;;;;;5.35;1.30;;;4.60;48.10;;;;;;5187030;28;20119;-66
2021/04/06 08:09:32;;;;;;;4.38;1.17;;;5.10;44.80;;;;;;5187929;28;20119;-66
2021/04/06 08:12:21;;;;;;;2.58;1.00;;;4.30;44.20;;;;;;5189211;28;20053;-64
2021/04/06 08:15:05;;;;;;;3.63;1.00;;;4.30;43.60;;;;;;5188393;28;20066;-64
2021/04/06 08:17:47;;;;;;;3.95;1.20;;;4.00;41.60;;;;;;5188920;28;20104;-64
2021/04/06 08:20:20;;;;;;;4.43;1.10;;;4.10;44.90;;;;;;5186906;28;20062;-64
2021/04/06 08:22:54;;;;;;;3.90;0.95;;;4.30;43.60;;;;;;5188788;28;20536;-64
2021/04/06 08:25:28;;;;;;;2.88;0.85;;;4.20;44.70;;;;;;5192261;28;20077;-65
2021/04/06 08:28:18;;;;;;;2.40;0.98;;;4.30;40.20;;;;;;5188690;28;20103;-65
2021/04/06 08:30:50;;;;;;;4.70;1.42;;;4.50;42.90;;;;;;5186699;28;20410;-66
2021/04/06 08:33:21;;;;;;;3.30;0.90;;;4.60;42.10;;;;;;5185059;28;20038;-64
2021/04/06 08:35:52;;;;;;;2.97;0.90;;;4.00;44.20;;;;;;5185601;28;20506;-65
2021/04/06 08:38:25;;;;;;;2.85;0.93;;;3.80;41.80;;;;;;5188770;28;20074;-64
2021/04/06 08:41:00;;;;;;;4.25;1.30;;;3.60;45.10;;;;;;5189246;28;20042;-64
2021/04/06 08:43:33;;;;;;;2.17;0.93;;;3.60;42.40;;;;;;5188071;28;20046;-67
2021/04/06 08:46:25;;;;;;;3.70;1.10;;;3.50;45.00;;;;;;5184023;28;20504;-64
2021/04/06 08:48:57;;;;;;;3.55;1.10;;;3.70;42.60;;;;;;5189817;28;20038;-64
2021/04/06 08:51:29;;;;;;;2.80;1.00;;;3.90;44.40;;;;;;5188115;28;20046;-64
2021/04/06 08:54:08;;;;;;;2.70;1.00;;;4.20;42.20;;;;;;5188233;28;20507;-66
2021/04/06 08:56:55;;;;;;;3.13;0.85;;;4.20;42.30;;;;;;5188645;28;20057;-64
2021/04/06 08:59:32;;;;;;;2.72;1.00;;;4.50;42.60;;;;;;5190776;28;20037;-64
2021/04/06 09:02:12;;;;;;;3.88;1.10;;;4.50;42.00;;;;;;5188246;28;20049;-68
2021/04/06 09:04:47;;;;;;;3.67;1.30;;;4.20;43.10;;;;;;5189161;28;20451;-65
2021/04/06 09:07:29;;;;;;;2.80;1.00;;;3.90;40.60;;;;;;5183753;28;20104;-66
2021/04/06 09:10:06;;;;;;;3.45;1.10;;;3.60;41.80;;;;;;5188885;28;20042;-68
2021/04/06 09:12:43;;;;;;;4.35;1.00;;;3.20;44.60;;;;;;5189582;28;20132;-66
2021/04/06 09:15:16;;;;;;;5.80;1.20;;;3.10;45.30;;;;;;5194794;28;20037;-64
2021/04/06 09:17:47;;;;;;;5.80;1.15;;;3.40;44.10;;;;;;5187572;28;20057;-66
2021/04/06 09:20:23;;;;;;;3.55;1.08;;;3.60;42.80;;;;;;5188760;28;20041;-65
2021/04/06 09:22:54;;;;;;;4.20;1.08;;;4.10;42.20;;;;;;5191570;28;20037;-64
2021/04/06 09:25:30;;;;;;;3.20;0.85;;;5.10;43.00;;;;;;5187508;28;20053;-65
2021/04/06 09:28:04;;;;;;;3.03;1.10;;;5.50;39.80;;;;;;5189011;28;20042;-67
2021/04/06 09:30:44;;;;;;;3.50;1.13;;;5.20;37.80;;;;;;5185154;28;20045;-64
2021/04/06 09:33:17;;;;;;;4.03;1.00;;;4.80;37.80;;;;;;5188231;28;20057;-65
2021/04/06 09:35:53;;;;;;;3.47;1.00;;;4.70;37.70;;;;;;5187840;28;20293;-66
2021/04/06 09:38:25;;;;;;;4.18;1.10;;;4.60;40.00;;;;;;5189907;28;20049;-64
2021/04/06 09:40:57;;;;;;;3.72;1.10;;;4.40;40.20;;;;;;5184723;28;20048;-64
2021/04/06 09:43:28;;;;;;;5.80;1.25;;;4.60;40.30;;;;;;5187731;28;20048;-65
2021/04/06 09:46:00;;;;;;;3.28;1.10;;;5.00;39.30;;;;;;5190116;28;20072;-64
2021/04/06 09:48:32;;;;;;;4.40;1.10;;;4.90;39.90;;;;;;5189076;28;20515;-66
2021/04/06 09:51:06;;;;;;;3.50;1.00;;;4.60;39.30;;;;;;5185354;28;20104;-66
2021/04/06 09:53:37;;;;;;;5.03;1.05;;;4.80;40.50;;;;;;5188954;28;20112;-64
2021/04/06 09:56:10;;;;;;;4.30;1.30;;;5.40;39.90;;;;;;5185894;28;20091;-64
2021/04/06 09:58:42;;;;;;;5.30;1.05;;;5.70;36.00;;;;;;5188531;28;20045;-65
2021/04/06 10:01:21;;;;;;;2.47;0.95;;;5.50;38.30;;;;;;5186763;28;20131;-65
2021/04/06 10:03:56;;;;;;;3.80;0.90;;;5.40;36.50;;;;;;5188752;28;20048;-64
2021/04/06 10:06:37;;;;;;;2.85;1.10;;;5.40;36.40;;;;;;5188098;28;20050;-64
2021/04/06 10:09:26;;;;;;;3.35;1.00;;;5.70;36.00;;;;;;5188276;28;20176;-64
2021/04/06 10:11:58;;;;;;;3.10;1.10;;;5.70;36.70;;;;;;5184814;28;20092;-64
2021/04/06 10:14:29;;;;;;;3.28;1.02;;;5.10;39.70;;;;;;5187007;28;20045;-64
2021/04/06 10:17:10;;;;;;;4.40;0.95;;;4.60;36.60;;;;;;5183126;28;20045;-66
2021/04/06 10:20:04;;;;;;;3.55;0.90;;;4.50;40.20;;;;;;5188376;28;20140;-64
2021/04/06 10:22:46;;;;;;;2.85;1.30;;;4.30;38.40;;;;;;5186480;28;20050;-66
2021/04/06 10:25:23;;;;;;;4.20;1.10;;;4.40;38.90;;;;;;5186347;28;20096;-66
2021/04/06 10:27:58;;;;;;;5.10;1.50;;;4.70;38.60;;;;;;5189494;28;20049;-64
2021/04/06 10:30:38;;;;;;;3.45;1.10;;;4.90;39.50;;;;;;5184818;28;20077;-65
2021/04/06 10:33:15;;;;;;;;;;;4.80;39.30;;;;;;5186029;28;20045;-64
2021/04/06 10:35:51;;;;;;;2.78;1.00;;;3.90;39.50;;;;;;5186608;28;19978;-66
2021/04/06 10:38:33;;;;;;;3.53;1.00;;;3.70;41.40;;;;;;5184155;28;20403;-64
2021/04/06 10:41:09;;;;;;;3.33;1.10;;;3.40;39.60;;;;;;5185999;28;20053;-64
2021/04/06 10:43:43;;;;;;;2.63;1.00;;;3.80;44.00;;;;;;5185035;28;20485;-64
2021/04/06 10:46:18;;;;;;;4.47;1.00;;;4.00;41.80;;;;;;5185360;28;20059;-65
2021/04/06 10:49:04;;;;;;;4.35;0.88;;;4.00;39.10;;;;;;5184854;28;20461;-66
2021/04/06 10:51:36;;;;;;;3.17;0.98;;;4.30;40.70;;;;;;5184473;28;20119;-63
2021/04/06 10:54:14;;;;;;;2.95;1.20;;;4.50;41.70;;;;;;5188274;28;20065;-65
2021/04/06 10:56:52;;;;;;;4.45;1.00;;;4.50;40.70;;;;;;5184249;28;20037;-65
2021/04/06 10:59:32;;;;;;;6.07;2.00;;;4.30;40.90;;;;;;5191721;28;20514;-64
2021/04/06 11:02:05;;;;;;;3.03;0.90;;;4.30;40.60;;;;;;5189725;28;20307;-66
2021/04/06 11:04:41;;;;;;;5.13;1.23;;;4.10;42.20;;;;;;5191842;28;20073;-66
2021/04/06 11:07:12;;;;;;;3.60;0.93;;;4.10;42.10;;;;;;5189198;28;20100;-65
2021/04/06 11:09:46;;;;;;;3.35;0.90;;;4.30;41.80;;;;;;5188134;28;20048;-65
2021/04/06 11:12:18;;;;;;;4.50;1.35;;;4.20;43.30;;;;;;5186439;28;20048;-64
2021/04/06 11:14:49;;;;;;;3.63;0.85;;;4.40;42.60;;;;;;5197097;28;20050;-65
2021/04/06 11:17:20;;;;;;;3.78;1.10;;;4.70;41.50;;;;;;5202782;28;20049;-65
2021/04/06 11:19:56;;;;;;;5.57;1.20;;;4.80;42.30;;;;;;5190260;28;20049;-65
2021/04/06 11:22:27;;;;;;;3.28;1.00;;;4.80;41.00;;;;;;5190140;28;20053;-65
2021/04/06 11:24:58;;;;;;;5.35;1.40;;;4.90;42.10;;;;;;5187859;28;20517;-64
2021/04/06 11:27:30;;;;;;;3.50;1.08;;;5.10;38.40;;;;;;5192222;28;20103;-64
2021/04/06 11:30:02;;;;;;;2.97;0.90;;;5.20;39.80;;;;;;5190063;28;20050;-67
2021/04/06 11:32:33;;;;;;;2.67;0.90;;;5.40;40.60;;;;;;5190426;28;20041;-67
2021/04/06 11:35:06;;;;;;;2.75;1.05;;;5.10;39.50;;;;;;5190612;28;20037;-65
2021/04/06 11:37:37;;;;;;;4.13;1.20;;;4.90;39.10;;;;;;5188636;28;20127;-65
2021/04/06 11:40:09;;;;;;;4.32;1.10;;;4.90;41.30;;;;;;5189006;28;20053;-67
2021/04/06 11:42:40;;;;;;;3.35;1.02;;;4.80;40.70;;;;;;5188538;28;20476;-66
2021/04/06 11:45:12;;;;;;;4.47;1.10;;;4.40;41.50;;;;;;5189706;28;20100;-67
2021/04/06 11:47:44;;;;;;;3.83;1.00;;;4.10;42.00;;;;;;5189506;28;20312;-65
2021/04/06 11:50:15;;;;;;;3.65;1.10;;;4.30;43.90;;;;;;5203867;28;20049;-65
2021/04/06 11:52:47;;;;;;;3.25;0.82;;;4.00;42.60;;;;;;5188214;28;20045;-66
2021/04/06 11:55:19;;;;;;;4.10;1.00;;;4.10;43.50;;;;;;5188185;28;20124;-67
2021/04/06 11:57:51;;;;;;;2.53;0.98;;;4.10;43.40;;;;;;5193989;28;20065;-65
2021/04/06 12:00:22;;;;;;;5.88;1.00;;;4.00;42.50;;;;;;5190018;28;20045;-63
2021/04/06 12:02:54;;;;;;;3.67;1.38;;;4.20;41.70;;;;;;5189713;28;20041;-64
2021/04/06 12:05:25;;;;;;;3.50;1.10;;;4.50;45.20;;;;;;5189102;28;20052;-65
2021/04/06 12:07:57;;;;;;;4.88;0.93;;;4.50;43.10;;;;;;5188683;28;20868;-64
2021/04/06 12:10:30;;;;;;;4.85;1.13;;;4.60;42.80;;;;;;5186881;28;20117;-64
2021/04/06 12:13:03;;;;;;;3.72;1.08;;;4.80;41.80;;;;;;5186625;28;20046;-65
2021/04/06 12:15:34;;;;;;;4.22;1.05;;;5.10;43.70;;;;;;5188005;28;20554;-66
2021/04/06 12:18:06;;;;;;;2.28;0.90;;;5.00;40.30;;;;;;5188281;28;20053;-64
2021/04/06 12:20:37;;;;;;;3.90;0.88;;;4.70;40.00;;;;;;5186672;28;20045;-64
2021/04/06 12:23:09;;;;;;;2.97;0.80;;;4.70;39.60;;;;;;5187194;28;20507;-64
2021/04/06 12:25:40;;;;;;;4.15;1.42;;;4.50;40.40;;;;;;5190214;28;20042;-64
2021/04/06 12:28:12;;;;;;;3.78;0.95;;;4.60;39.90;;;;;;5187417;28;20073;-64
2021/04/06 12:30:43;;;;;;;4.40;1.33;;;5.00;41.40;;;;;;5170716;28;20599;-64
2021/04/06 12:33:15;;;;;;;2.90;1.00;;;5.10;38.50;;;;;;5186358;28;20056;-65
2021/04/06 12:35:46;;;;;;;2.78;1.08;;;5.40;38.20;;;;;;5189757;28;20042;-68
2021/04/06 12:38:18;;;;;;;3.10;0.88;;;5.10;37.50;;;;;;5184613;28;20068;-68
2021/04/06 12:40:49;;;;;;;4.50;1.23;;;5.10;37.70;;;;;;5186268;28;20045;-66
2021/04/06 12:43:21;;;;;;;3.85;1.20;;;5.20;37.50;;;;;;5190721;28;20389;-65
2021/04/06 12:45:52;;;;;;;2.42;0.98;;;5.40;38.20;;;;;;5185126;28;20033;-65
2021/04/06 12:48:24;;;;;;;2.28;1.00;;;5.40;38.10;;;;;;5193821;28;20048;-66
2021/04/06 12:50:56;;;;;;;4.60;1.38;;;5.70;39.80;;;;;;5195319;28;20470;-65
2021/04/06 12:53:27;;;;;;;2.85;1.00;;;6.00;37.70;;;;;;5190655;28;20698;-65
2021/04/06 12:55:59;;;;;;;3.65;1.05;;;6.10;37.80;;;;;;5188630;28;20168;-65
2021/04/06 12:58:30;;;;;;;2.40;1.05;;;5.90;36.50;;;;;;5186022;28;20042;-65
2021/04/06 13:01:02;;;;;;;4.40;1.02;;;5.90;33.60;;;;;;5186339;28;20526;-64
2021/04/06 13:03:34;;;;;;;2.65;0.90;;;6.00;36.30;;;;;;5184065;28;20466;-62
2021/04/06 13:06:06;;;;;;;2.85;0.70;;;5.70;36.70;;;;;;5187954;28;20068;-62
2021/04/06 13:08:37;;;;;;;5.70;1.13;;;5.50;36.50;;;;;;5189712;28;20488;-62
2021/04/06 13:11:10;;;;;;;3.28;1.02;;;5.60;38.40;;;;;;5188136;28;20414;-63
2021/04/06 13:13:41;;;;;;;1.63;0.80;;;5.70;37.60;;;;;;5188833;28;20515;-62
2021/04/06 13:16:13;;;;;;;3.55;1.00;;;6.10;35.80;;;;;;5186507;28;20044;-62
2021/04/06 13:18:44;;;;;;;4.72;1.90;;;6.30;37.40;;;;;;5189820;28;20099;-63
2021/04/06 13:21:16;;;;;;;3.15;1.02;;;6.60;35.70;;;;;;5184557;28;20038;-62
2021/04/06 13:23:47;;;;;;;1.85;0.70;;;6.10;35.40;;;;;;5190852;28;20676;-62
2021/04/06 13:26:19;;;;;;;2.63;0.95;;;5.90;37.40;;;;;;5185150;28;20081;-62
2021/04/06 13:28:51;;;;;;;2.90;0.82;;;5.90;37.10;;;;;;5191344;28;20042;-63
2021/04/06 13:31:23;;;;;;;4.00;0.90;;;5.80;37.50;;;;;;5188186;28;20061;-63